Algoma, Wisconsin
Current Conditions -  °F | °C
As of 5:55 AM on Monday 22 Dec 2014 (Local Time) from KSUE Reporting Station
Overcast Overcast  
Wind Chill: 27°   Ceiling: 4000
Heat Index: 36°   Visibility: 7mi
Dew Point: 30°   Wind: 14mph
Humidity: 81%   Direction: 170°S
Pressure: 29.95"   Gusts: 17mph
Location:  44.61°N, 87.43°W
Report Text: KSUE 221155Z AUTO 17012G15KT 7SM SCT017 OVC040 02/M01 A2995 RMK AO1 10020 20020 57007
Loading
Personal Weather Stations






























Interactive Weather Map New forecast layout! Learn more

10-Day Weather Forecast

Advertisements
Track Severe Weather on mobile